Time;durP1;ratioP1;P1;durP2;ratioP2;P2;SDS_P1;SDS_P2;PMS_P1;PMS_P2;Temp;Humidity;BMP_temperature;BMP_pressure;BME280_temperature;BME280_humidity;BME280_pressure;Samples;Min_cycle;Max_cycle;Signal;HPM_P1;HPM_P2
2023/02/23 04:19:38;;;;;;;24.23;21.73;;;8.60;99.90;;;;;;4940249;29;20205;-77
2023/02/23 04:22:05;;;;;;;25.27;22.63;;;8.60;99.90;;;;;;4922021;29;20777;-77
2023/02/23 04:24:33;;;;;;;25.37;22.77;;;8.60;99.90;;;;;;4928888;29;20206;-77
2023/02/23 04:27:01;;;;;;;24.50;21.70;;;8.60;99.90;;;;;;4938469;28;20200;-78
2023/02/23 04:29:28;;;;;;;23.33;21.13;;;8.60;99.90;;;;;;4926777;29;20195;-78
2023/02/23 04:31:55;;;;;;;24.83;22.03;;;8.60;99.90;;;;;;4942449;28;20219;-78
2023/02/23 04:34:22;;;;;;;24.67;22.13;;;8.60;99.90;;;;;;4936005;29;20241;-78
2023/02/23 04:36:50;;;;;;;22.50;20.10;;;8.60;99.90;;;;;;4942067;29;20210;-78
2023/02/23 04:39:17;;;;;;;18.43;13.97;;;8.50;99.90;;;;;;4942043;29;20230;-78
2023/02/23 04:41:47;;;;;;;22.40;19.67;;;8.50;99.90;;;;;;4944513;29;20219;-78
2023/02/23 04:44:14;;;;;;;19.33;14.53;;;8.50;99.90;;;;;;4943533;28;20214;-78
2023/02/23 04:46:41;;;;;;;20.47;17.97;;;8.50;99.90;;;;;;4936014;29;20279;-78
2023/02/23 04:49:08;;;;;;;19.97;16.50;;;8.60;99.90;;;;;;4932502;29;20264;-78
2023/02/23 04:51:36;;;;;;;21.40;17.27;;;8.60;99.90;;;;;;4936642;29;20685;-78
2023/02/23 04:54:03;;;;;;;19.53;16.43;;;8.60;99.90;;;;;;4927105;29;20240;-78
2023/02/23 04:56:30;;;;;;;20.53;18.43;;;8.60;99.90;;;;;;4932332;29;20573;-78
2023/02/23 04:58:59;;;;;;;18.43;15.17;;;8.60;99.90;;;;;;4916454;29;20211;-78
2023/02/23 05:01:26;;;;;;;15.77;13.87;;;8.60;99.90;;;;;;4932428;29;20234;-78
2023/02/23 05:03:53;;;;;;;18.70;16.70;;;8.60;99.90;;;;;;4930866;29;20203;-80
2023/02/23 05:06:20;;;;;;;15.43;12.90;;;8.60;99.90;;;;;;4935280;29;20214;-79
2023/02/23 05:08:47;;;;;;;17.90;16.03;;;8.60;99.90;;;;;;4946368;29;20554;-79
2023/02/23 05:11:14;;;;;;;23.10;17.03;;;8.60;99.90;;;;;;4939972;29;20259;-78
2023/02/23 05:13:41;;;;;;;20.23;15.00;;;8.60;99.90;;;;;;4915848;29;20619;-79
2023/02/23 05:16:09;;;;;;;20.17;16.93;;;8.70;99.90;;;;;;4917653;29;20203;-80
2023/02/23 05:18:36;;;;;;;19.80;15.60;;;8.60;99.90;;;;;;4935779;28;20203;-83
2023/02/23 05:21:04;;;;;;;19.43;15.00;;;8.70;99.90;;;;;;4935954;29;20717;-79
2023/02/23 05:23:31;;;;;;;18.57;15.93;;;8.70;99.90;;;;;;4932420;29;20259;-79
2023/02/23 05:26:02;;;;;;;17.77;13.90;;;8.70;99.90;;;;;;4924579;29;20212;-79
2023/02/23 05:28:29;;;;;;;16.50;13.97;;;8.70;99.90;;;;;;4917177;29;20231;-78
2023/02/23 05:30:56;;;;;;;15.93;14.23;;;8.70;99.90;;;;;;4921036;29;20283;-78
2023/02/23 05:33:24;;;;;;;17.17;15.03;;;8.70;99.90;;;;;;4920369;29;20262;-78
2023/02/23 05:35:51;;;;;;;14.83;12.10;;;8.70;99.90;;;;;;4917045;29;20207;-78
2023/02/23 05:38:18;;;;;;;19.10;17.17;;;8.70;99.90;;;;;;4919364;29;20208;-77
2023/02/23 05:40:45;;;;;;;21.50;19.40;;;8.80;99.90;;;;;;4923152;29;20314;-78
2023/02/23 05:43:12;;;;;;;20.63;18.43;;;8.70;99.90;;;;;;4923622;29;20337;-78
2023/02/23 05:45:41;;;;;;;20.40;18.53;;;8.70;99.90;;;;;;4918603;29;20204;-79
2023/02/23 05:48:08;;;;;;;23.20;20.83;;;8.70;99.90;;;;;;4916025;29;20299;-78
2023/02/23 05:50:36;;;;;;;23.07;20.87;;;8.60;99.90;;;;;;4919065;29;20212;-78
2023/02/23 05:53:04;;;;;;;24.23;21.87;;;8.60;99.90;;;;;;4919058;29;20760;-78
2023/02/23 05:55:31;;;;;;;24.00;21.60;;;8.50;99.90;;;;;;4913978;29;20204;-78
2023/02/23 05:57:58;;;;;;;25.00;22.50;;;8.50;99.90;;;;;;4915555;29;20210;-78
2023/02/23 06:00:25;;;;;;;24.37;21.87;;;8.50;99.90;;;;;;4919151;29;20228;-78
2023/02/23 06:02:52;;;;;;;22.73;20.40;;;8.50;99.90;;;;;;4923350;28;20204;-79
2023/02/23 06:05:19;;;;;;;23.17;20.87;;;8.50;99.90;;;;;;4916999;29;20214;-79
2023/02/23 06:07:47;;;;;;;22.00;19.83;;;8.50;99.90;;;;;;4921129;29;20698;-79
2023/02/23 06:10:14;;;;;;;24.67;22.23;;;8.50;99.90;;;;;;4913196;29;20204;-78
2023/02/23 06:12:41;;;;;;;23.37;20.97;;;8.60;99.90;;;;;;4924717;29;20232;-80
2023/02/23 06:15:08;;;;;;;21.53;19.47;;;8.50;99.90;;;;;;4922912;29;20699;-77
2023/02/23 06:17:35;;;;;;;21.53;19.43;;;8.50;99.90;;;;;;4922546;29;20220;-78
2023/02/23 06:20:03;;;;;;;21.97;19.77;;;8.60;99.90;;;;;;4923721;29;20208;-78
2023/02/23 06:22:30;;;;;;;22.60;20.07;;;8.50;99.90;;;;;;4930762;29;20244;-78
2023/02/23 06:24:59;;;;;;;20.70;18.77;;;8.60;99.90;;;;;;4924918;29;20200;-78
2023/02/23 06:27:25;;;;;;;21.13;19.20;;;8.60;99.90;;;;;;4919854;29;20191;-78
2023/02/23 06:29:52;;;;;;;21.63;19.63;;;8.50;99.90;;;;;;4922693;29;20196;-78
2023/02/23 06:32:19;;;;;;;20.63;18.67;;;8.50;99.90;;;;;;4924134;29;20215;-77
2023/02/23 06:34:48;;;;;;;23.23;20.87;;;8.50;99.90;;;;;;4923507;29;20589;-78
2023/02/23 06:37:15;;;;;;;23.37;21.00;;;8.50;99.90;;;;;;4926882;29;20686;-78
2023/02/23 06:39:42;;;;;;;22.57;20.40;;;8.50;99.90;;;;;;4939017;29;20206;-78
2023/02/23 06:42:10;;;;;;;21.93;19.83;;;8.40;99.90;;;;;;4929668;28;20647;-78
2023/02/23 06:44:38;;;;;;;22.83;20.67;;;8.40;99.90;;;;;;4935053;29;20198;-77
2023/02/23 06:47:05;;;;;;;22.10;19.93;;;8.40;99.90;;;;;;4939450;28;20213;-78
2023/02/23 06:49:32;;;;;;;22.67;20.40;;;8.40;99.90;;;;;;4937308;28;20576;-78
2023/02/23 06:51:59;;;;;;;22.37;20.17;;;8.50;99.90;;;;;;4939661;29;20230;-78
2023/02/23 06:54:26;;;;;;;21.90;19.50;;;8.50;99.90;;;;;;4936820;29;20203;-78
2023/02/23 06:56:54;;;;;;;22.33;20.20;;;8.50;99.90;;;;;;4937396;29;20204;-78
2023/02/23 06:59:23;;;;;;;23.37;20.77;;;8.50;99.90;;;;;;4937904;28;20207;-78
2023/02/23 07:01:50;;;;;;;22.57;20.20;;;8.50;99.90;;;;;;4926909;29;20227;-78
2023/02/23 07:04:17;;;;;;;23.03;20.80;;;8.50;99.90;;;;;;4933145;29;20199;-78
2023/02/23 07:06:43;;;;;;;22.83;20.50;;;8.50;99.90;;;;;;4937709;29;20210;-78
2023/02/23 07:09:10;;;;;;;23.13;20.83;;;8.50;99.90;;;;;;4938609;28;20207;-78
2023/02/23 07:11:37;;;;;;;23.83;21.47;;;8.50;99.90;;;;;;4928787;29;20215;-78
2023/02/23 07:14:04;;;;;;;22.90;20.63;;;8.50;99.90;;;;;;4938645;29;20553;-78
2023/02/23 07:16:32;;;;;;;24.63;22.20;;;8.50;99.90;;;;;;4941278;29;20214;-78
2023/02/23 07:18:59;;;;;;;22.60;20.57;;;8.60;99.90;;;;;;4940801;29;20203;-78
2023/02/23 07:21:26;;;;;;;24.00;21.60;;;8.60;99.90;;;;;;4940963;28;20255;-78
2023/02/23 07:23:53;;;;;;;22.63;20.57;;;8.60;99.90;;;;;;4942326;29;20454;-78
2023/02/23 07:26:19;;;;;;;21.57;19.57;;;8.70;99.90;;;;;;4941911;29;20214;-78
2023/02/23 07:28:46;;;;;;;22.77;20.50;;;8.80;99.90;;;;;;4941994;29;20199;-78
2023/02/23 07:31:16;;;;;;;22.33;20.40;;;8.80;99.90;;;;;;4941414;29;20215;-78
2023/02/23 07:33:45;;;;;;;23.53;21.43;;;8.90;99.90;;;;;;4932920;29;20223;-78
2023/02/23 07:36:12;;;;;;;20.97;19.10;;;8.90;99.90;;;;;;4939604;29;20207;-78
2023/02/23 07:38:39;;;;;;;13.23;11.50;;;9.00;99.90;;;;;;4925847;29;20195;-78
2023/02/23 07:41:06;;;;;;;14.57;12.00;;;9.10;99.90;;;;;;4928044;29;20242;-78
2023/02/23 07:43:33;;;;;;;17.43;12.13;;;9.20;99.90;;;;;;4921604;29;20215;-78
2023/02/23 07:46:00;;;;;;;14.20;11.53;;;9.20;99.90;;;;;;4933971;29;20254;-78
2023/02/23 07:48:27;;;;;;;14.83;12.03;;;9.20;99.90;;;;;;4936240;28;20204;-79
2023/02/23 07:50:55;;;;;;;14.27;11.20;;;9.30;99.90;;;;;;4936745;29;20247;-80
2023/02/23 07:53:23;;;;;;;16.23;12.57;;;9.30;99.90;;;;;;4936764;29;20690;-79
2023/02/23 07:55:56;;;;;;;19.90;17.93;;;9.30;99.90;;;;;;4934845;28;20211;-80
2023/02/23 07:58:22;;;;;;;15.80;12.03;;;9.40;99.90;;;;;;4936117;29;20633;-82
2023/02/23 08:00:49;;;;;;;18.20;16.40;;;9.40;99.90;;;;;;4911758;29;20730;-78
2023/02/23 08:03:16;;;;;;;13.50;10.73;;;9.50;99.90;;;;;;4914369;29;20576;-78
2023/02/23 08:05:43;;;;;;;14.83;10.40;;;9.60;99.90;;;;;;4927373;29;20213;-78
2023/02/23 08:08:12;;;;;;;12.63;10.00;;;9.70;99.90;;;;;;4928988;29;20202;-78
2023/02/23 08:10:39;;;;;;;19.03;17.13;;;9.80;99.90;;;;;;4928419;29;20201;-78
2023/02/23 08:13:06;;;;;;;11.67;10.27;;;9.90;99.90;;;;;;4928138;29;20217;-78
2023/02/23 08:15:33;;;;;;;11.93;9.50;;;10.00;99.90;;;;;;4926616;29;20274;-80
2023/02/23 08:18:00;;;;;;;11.87;8.37;;;10.10;99.90;;;;;;4920547;29;20668;-79
2023/02/23 08:20:27;;;;;;;13.30;9.80;;;10.20;99.90;;;;;;4923851;29;20299;-78
2023/02/23 08:22:54;;;;;;;12.93;8.30;;;10.20;99.90;;;;;;4917205;29;20195;-78
2023/02/23 08:25:23;;;;;;;10.27;9.17;;;10.30;99.90;;;;;;4922746;29;20546;-78
2023/02/23 08:27:52;;;;;;;11.33;10.23;;;10.30;99.90;;;;;;4925251;29;20227;-78
2023/02/23 08:30:20;;;;;;;10.80;8.43;;;10.30;99.90;;;;;;4923784;29;20281;-78
2023/02/23 08:32:47;;;;;;;12.47;9.30;;;10.40;99.90;;;;;;4926674;29;20225;-77
2023/02/23 08:35:14;;;;;;;8.97;7.70;;;10.40;99.90;;;;;;4921094;29;20211;-77
2023/02/23 08:37:41;;;;;;;12.37;8.83;;;10.50;99.90;;;;;;4923117;29;20591;-78
2023/02/23 08:40:11;;;;;;;11.80;10.70;;;10.60;99.90;;;;;;4926423;29;20337;-78
2023/02/23 08:42:39;;;;;;;11.67;9.20;;;10.60;99.90;;;;;;4921647;29;20225;-78
2023/02/23 08:45:06;;;;;;;10.77;9.17;;;10.60;99.90;;;;;;4922821;29;20219;-79
2023/02/23 08:47:34;;;;;;;9.57;7.80;;;10.80;99.90;;;;;;4930076;29;20204;-81
2023/02/23 08:50:01;;;;;;;9.97;7.70;;;10.90;99.90;;;;;;4918831;29;20673;-79
2023/02/23 08:52:28;;;;;;;8.83;7.37;;;11.00;99.90;;;;;;4925204;29;20222;-84
2023/02/23 08:54:56;;;;;;;10.23;9.03;;;11.20;99.90;;;;;;4917049;29;20314;-80
2023/02/23 08:57:23;;;;;;;13.32;12.13;;;11.20;99.90;;;;;;4919040;29;20935;-83
2023/02/23 08:59:51;;;;;;;15.77;14.47;;;11.30;99.90;;;;;;4930027;29;20263;-79
2023/02/23 09:02:18;;;;;;;9.33;8.13;;;11.30;99.90;;;;;;4922569;29;20239;-79
2023/02/23 09:04:45;;;;;;;16.63;15.13;;;11.30;99.90;;;;;;4923284;29;20199;-79
2023/02/23 09:07:15;;;;;;;18.00;16.40;;;11.30;99.90;;;;;;4916380;29;20756;-79
2023/02/23 09:09:42;;;;;;;17.83;16.33;;;11.30;99.90;;;;;;4925540;29;20210;-78
2023/02/23 09:12:09;;;;;;;18.87;17.10;;;11.30;99.90;;;;;;4936436;29;20232;-79
2023/02/23 09:14:36;;;;;;;19.97;18.23;;;11.20;99.90;;;;;;4974609;23;20252;-80
2023/02/23 09:17:04;;;;;;;21.40;19.33;;;11.30;99.90;;;;;;4962951;28;20205;-80
2023/02/23 09:19:31;;;;;;;20.13;17.93;;;11.30;99.90;;;;;;4960039;28;20235;-80
2023/02/23 09:21:58;;;;;;;17.00;15.27;;;11.30;99.90;;;;;;4949929;28;20227;-80
2023/02/23 09:24:25;;;;;;;15.90;14.30;;;11.30;99.90;;;;;;4962517;28;20234;-80
2023/02/23 09:26:52;;;;;;;12.47;10.80;;;11.30;99.90;;;;;;4946324;29;20665;-80
2023/02/23 09:29:19;;;;;;;13.77;11.03;;;11.40;99.90;;;;;;4942345;29;20636;-79
2023/02/23 09:31:46;;;;;;;13.23;11.23;;;11.40;99.90;;;;;;4945195;29;20195;-80
2023/02/23 09:34:14;;;;;;;15.07;13.67;;;11.50;99.90;;;;;;4943959;28;20253;-79
2023/02/23 09:36:41;;;;;;;14.63;13.23;;;11.50;99.90;;;;;;4941183;29;20207;-83
2023/02/23 09:39:08;;;;;;;14.93;13.37;;;11.50;99.90;;;;;;4942518;28;20211;-84
2023/02/23 09:41:53;;;;;;;11.00;9.03;;;11.60;99.90;;;;;;4938960;29;20262;-84
2023/02/23 09:44:29;;;;;;;16.30;14.60;;;11.80;99.90;;;;;;4940753;28;20716;-84
2023/02/23 09:47:10;;;;;;;10.77;7.67;;;11.90;99.90;;;;;;4933243;29;20575;-83
2023/02/23 09:49:42;;;;;;;9.10;8.20;;;12.00;99.90;;;;;;4945545;28;20217;-80
2023/02/23 09:52:16;;;;;;;8.60;7.47;;;12.10;99.90;;;;;;4929311;29;20203;-81
2023/02/23 09:54:43;;;;;;;16.20;14.60;;;12.20;99.90;;;;;;4938133;29;20215;-81
2023/02/23 09:57:14;;;;;;;12.03;8.17;;;12.40;99.90;;;;;;4940134;29;20218;-79
2023/02/23 09:59:41;;;;;;;8.90;7.20;;;12.40;99.90;;;;;;4944931;28;20203;-80
2023/02/23 10:02:21;;;;;;;10.70;6.40;;;12.60;99.90;;;;;;4938353;29;20203;-80
2023/02/23 10:04:51;;;;;;;12.80;11.70;;;12.80;99.90;;;;;;4940715;29;20638;-79
2023/02/23 10:07:23;;;;;;;13.30;12.00;;;12.80;99.90;;;;;;4944929;29;20690;-79
2023/02/23 10:10:12;;;;;;;7.90;5.80;;;13.00;99.90;;;;;;4948246;28;20211;-79
2023/02/23 10:12:48;;;;;;;12.07;7.40;;;13.00;99.90;;;;;;4943303;28;20309;-79
2023/02/23 10:15:24;;;;;;;11.23;10.10;;;13.20;99.90;;;;;;4944087;29;20324;-79
2023/02/23 10:18:01;;;;;;;9.20;8.30;;;13.30;99.90;;;;;;4946717;29;20203;-79
2023/02/23 10:20:37;;;;;;;9.50;8.60;;;13.30;99.90;;;;;;4941551;29;20199;-79
2023/02/23 10:23:08;;;;;;;11.23;10.33;;;13.40;99.90;;;;;;4934874;29;20260;-79
2023/02/23 10:25:40;;;;;;;10.73;9.70;;;13.30;99.90;;;;;;4945371;29;20225;-79
2023/02/23 10:28:12;;;;;;;11.60;10.40;;;13.10;99.90;;;;;;4946339;29;20204;-78
2023/02/23 10:30:41;;;;;;;11.47;10.47;;;13.20;99.90;;;;;;4944653;29;20223;-79
2023/02/23 10:33:15;;;;;;;11.77;10.73;;;13.20;99.90;;;;;;4944144;29;20233;-79
2023/02/23 10:35:44;;;;;;;13.73;12.63;;;13.50;99.90;;;;;;4940571;29;20212;-79
2023/02/23 10:38:16;;;;;;;12.83;11.83;;;13.80;99.90;;;;;;4942980;28;20229;-79
2023/02/23 10:40:46;;;;;;;6.17;5.43;;;14.00;99.90;;;;;;4953777;28;20242;-79
2023/02/23 10:43:14;;;;;;;10.20;5.20;;;14.10;99.90;;;;;;4940079;28;20727;-80
2023/02/23 10:45:45;;;;;;;8.97;4.63;;;14.10;99.90;;;;;;4945427;28;20260;-80
2023/02/23 10:48:17;;;;;;;11.93;10.43;;;14.20;99.90;;;;;;4951850;28;20203;-80
2023/02/23 10:50:48;;;;;;;12.43;11.37;;;14.30;99.90;;;;;;4949934;28;20293;-79
2023/02/23 10:53:22;;;;;;;11.40;10.40;;;14.30;99.90;;;;;;4950740;29;20231;-79
2023/02/23 10:56:01;;;;;;;9.60;8.80;;;14.40;99.90;;;;;;4947555;29;20734;-79
2023/02/23 10:58:29;;;;;;;9.13;8.43;;;14.40;99.90;;;;;;4948438;28;20207;-79
2023/02/23 11:00:57;;;;;;;10.73;9.83;;;14.50;99.90;;;;;;4946780;29;20209;-79
2023/02/23 11:03:31;;;;;;;10.53;9.50;;;14.60;99.90;;;;;;4948995;28;20207;-80
2023/02/23 11:06:00;;;;;;;10.10;9.30;;;14.70;99.90;;;;;;4936668;29;20198;-80
2023/02/23 11:08:30;;;;;;;10.80;9.80;;;14.80;99.90;;;;;;4944677;29;20200;-80
2023/02/23 11:11:17;;;;;;;12.43;10.37;;;14.80;99.90;;;;;;4947887;28;20204;-81
2023/02/23 11:13:45;;;;;;;10.90;10.00;;;14.80;99.90;;;;;;4943162;28;20237;-81
2023/02/23 11:16:14;;;;;;;14.23;10.50;;;15.10;99.90;;;;;;4943880;28;20195;-80
2023/02/23 11:18:43;;;;;;;11.03;9.90;;;15.10;99.90;;;;;;4941512;29;20211;-81
2023/02/23 11:21:13;;;;;;;11.70;10.60;;;15.30;99.90;;;;;;4952220;29;20205;-80
2023/02/23 11:23:41;;;;;;;10.60;9.57;;;15.30;99.90;;;;;;4943804;28;20274;-80
2023/02/23 11:26:38;;;;;;;11.67;10.60;;;15.20;99.90;;;;;;4944645;29;20205;-80
2023/02/23 11:29:14;;;;;;;9.43;8.57;;;15.20;99.90;;;;;;4943774;28;20215;-79
2023/02/23 11:31:48;;;;;;;10.57;8.53;;;15.30;99.90;;;;;;4946039;29;20219;-79
2023/02/23 11:34:22;;;;;;;10.70;8.97;;;15.40;99.90;;;;;;4944302;28;20227;-79
2023/02/23 11:37:01;;;;;;;10.33;9.27;;;15.50;99.90;;;;;;4946369;29;20211;-81
2023/02/23 11:39:28;;;;;;;9.90;9.20;;;15.50;99.90;;;;;;4943454;29;20287;-80
2023/02/23 11:42:15;;;;;;;10.77;9.43;;;15.60;99.90;;;;;;4943756;29;20270;-79
2023/02/23 11:44:42;;;;;;;11.83;9.60;;;15.40;99.90;;;;;;4941509;28;20223;-79
2023/02/23 11:47:17;;;;;;;9.53;8.73;;;15.20;99.90;;;;;;4946105;29;20206;-81
2023/02/23 11:49:46;;;;;;;10.83;9.37;;;15.30;99.90;;;;;;4949839;28;20206;-83
2023/02/23 11:52:18;;;;;;;9.87;8.90;;;15.40;99.90;;;;;;4946545;28;20230;-79
2023/02/23 11:54:52;;;;;;;8.80;8.07;;;15.50;99.90;;;;;;4949608;28;20233;-80
2023/02/23 11:57:24;;;;;;;10.37;8.27;;;15.70;99.90;;;;;;4945444;29;20622;-81
2023/02/23 11:59:52;;;;;;;9.80;9.00;;;15.60;99.90;;;;;;4944537;28;20210;-80
2023/02/23 12:02:23;;;;;;;9.93;9.03;;;15.60;99.90;;;;;;4946714;28;20228;-79
2023/02/23 12:04:54;;;;;;;10.23;9.40;;;15.70;99.90;;;;;;4950846;28;20211;-78
2023/02/23 12:07:33;;;;;;;9.03;8.23;;;15.70;99.90;;;;;;4950019;28;20212;-80
2023/02/23 12:10:06;;;;;;;10.30;9.60;;;15.60;99.90;;;;;;4945141;29;20199;-80
2023/02/23 12:12:44;;;;;;;11.00;9.90;;;15.60;99.90;;;;;;4948512;29;20281;-80
2023/02/23 12:15:19;;;;;;;12.00;10.80;;;15.60;99.90;;;;;;4945376;29;20671;-83
2023/02/23 12:17:51;;;;;;;10.83;9.87;;;15.60;99.90;;;;;;4960399;28;20257;-82
2023/02/23 12:20:23;;;;;;;10.40;9.60;;;15.60;99.90;;;;;;4941210;28;20257;-82
2023/02/23 12:22:57;;;;;;;10.50;9.60;;;15.60;99.90;;;;;;4945160;29;20235;-82
2023/02/23 12:25:28;;;;;;;10.33;9.60;;;15.40;99.90;;;;;;4943708;29;20229;-81
2023/02/23 12:28:03;;;;;;;10.43;9.50;;;15.50;99.90;;;;;;4937899;28;20203;-79
2023/02/23 12:30:39;;;;;;;10.57;9.60;;;15.50;99.90;;;;;;4948717;29;20216;-79
2023/02/23 12:33:11;;;;;;;10.63;9.83;;;15.60;99.90;;;;;;4950201;29;20206;-80
2023/02/23 12:35:46;;;;;;;10.40;9.50;;;15.60;99.90;;;;;;4940990;28;20235;-80
2023/02/23 12:38:26;;;;;;;10.43;9.53;;;15.60;99.90;;;;;;4940641;29;20207;-79
2023/02/23 12:40:55;;;;;;;10.20;9.43;;;15.70;99.90;;;;;;4936824;29;20209;-79
2023/02/23 12:43:30;;;;;;;10.60;9.70;;;15.70;99.90;;;;;;4944257;29;20196;-79
2023/02/23 12:46:06;;;;;;;10.57;9.77;;;15.60;99.90;;;;;;4957565;28;20213;-79
2023/02/23 12:48:43;;;;;;;10.83;9.97;;;15.70;99.90;;;;;;4936881;29;20207;-78
2023/02/23 12:51:18;;;;;;;9.97;9.17;;;15.60;99.90;;;;;;4934820;29;20609;-79
2023/02/23 12:53:46;;;;;;;10.60;9.70;;;15.60;99.90;;;;;;4942627;28;20225;-79
2023/02/23 12:56:32;;;;;;;10.07;9.30;;;15.60;99.90;;;;;;4961473;28;20206;-79
2023/02/23 12:59:13;;;;;;;11.10;10.20;;;15.60;99.90;;;;;;4942067;29;20283;-79
2023/02/23 13:01:46;;;;;;;10.33;9.53;;;15.60;99.90;;;;;;4952439;28;20775;-79
2023/02/23 13:04:32;;;;;;;9.80;9.10;;;15.70;99.90;;;;;;4959509;28;20223;-80
2023/02/23 13:07:12;;;;;;;10.87;9.87;;;15.70;99.90;;;;;;4944335;29;20203;-79
2023/02/23 13:09:49;;;;;;;10.63;9.83;;;15.60;99.90;;;;;;4945504;29;20201;-80
2023/02/23 13:12:28;;;;;;;10.50;9.60;;;15.50;99.90;;;;;;4947065;29;20232;-79
2023/02/23 13:15:07;;;;;;;10.37;9.57;;;15.50;99.90;;;;;;4945123;29;20223;-80
2023/02/23 13:17:40;;;;;;;10.17;9.27;;;15.40;99.90;;;;;;4940114;29;20254;-79
2023/02/23 13:20:17;;;;;;;10.20;9.30;;;15.50;99.90;;;;;;4934022;29;20199;-80
2023/02/23 13:26:11;;;;;;;10.80;9.80;;;15.20;99.90;;;;;;5142205;23;20284;-79
2023/02/23 13:28:51;;;;;;;11.40;10.13;;;15.20;99.90;;;;;;4978496;28;20201;-78
2023/02/23 13:31:23;;;;;;;10.70;9.80;;;15.10;99.90;;;;;;4977160;28;20208;-79
2023/02/23 13:33:51;;;;;;;10.73;9.73;;;15.20;99.90;;;;;;4973012;28;20226;-79
2023/02/23 13:36:20;;;;;;;10.80;9.80;;;15.20;99.90;;;;;;4958946;28;20194;-80
2023/02/23 13:39:09;;;;;;;10.97;10.10;;;15.20;99.90;;;;;;4959388;28;20206;-78
2023/02/23 13:41:41;;;;;;;10.07;9.27;;;15.20;99.90;;;;;;4959537;28;20318;-80
2023/02/23 13:44:19;;;;;;;10.37;9.40;;;15.10;99.90;;;;;;4960434;28;20309;-80
2023/02/23 13:46:50;;;;;;;9.73;9.03;;;15.10;99.90;;;;;;4959389;28;20194;-79
2023/02/23 13:49:28;;;;;;;10.83;9.73;;;15.10;99.90;;;;;;4958280;28;20205;-80
2023/02/23 13:51:59;;;;;;;10.63;9.73;;;15.00;99.90;;;;;;4960480;28;20232;-78
2023/02/23 13:54:32;;;;;;;10.70;9.70;;;15.00;99.90;;;;;;4960456;28;20219;-78
2023/02/23 13:57:04;;;;;;;10.07;9.27;;;15.00;99.90;;;;;;4957471;28;20210;-80
2023/02/23 13:59:37;;;;;;;10.27;9.33;;;14.90;99.90;;;;;;4959267;29;20205;-79
2023/02/23 14:02:23;;;;;;;10.90;9.70;;;14.90;99.90;;;;;;4958823;28;20249;-79
2023/02/23 14:04:50;;;;;;;9.90;9.00;;;14.90;99.90;;;;;;4966324;28;20249;-79
2023/02/23 14:07:23;;;;;;;10.27;9.37;;;15.00;99.90;;;;;;4957835;29;20225;-79
2023/02/23 14:09:55;;;;;;;10.87;9.77;;;15.00;99.90;;;;;;4967168;28;20241;-80
2023/02/23 14:12:32;;;;;;;10.63;9.83;;;15.00;99.90;;;;;;4958406;28;20206;-79
2023/02/23 14:15:39;;;;;;;10.63;9.83;;;15.00;99.90;;;;;;4947967;28;20233;-78
2023/02/23 14:18:30;;;;;;;11.80;10.60;;;14.90;99.90;;;;;;4965551;28;20219;-80
2023/02/23 14:21:03;;;;;;;10.97;9.80;;;14.90;99.90;;;;;;4965302;28;20212;-80
2023/02/23 14:23:48;;;;;;;10.80;10.00;;;14.90;99.90;;;;;;4962267;28;20202;-80
2023/02/23 14:26:31;;;;;;;10.80;9.83;;;14.90;99.90;;;;;;4973014;28;20214;-79
2023/02/23 14:29:21;;;;;;;11.07;10.23;;;14.80;99.90;;;;;;4962534;28;20210;-80
2023/02/23 14:32:02;;;;;;;15.57;10.63;;;14.70;99.90;;;;;;4968625;28;20214;-79
2023/02/23 14:34:51;;;;;;;13.03;10.33;;;14.60;99.90;;;;;;4968043;28;20225;-80
2023/02/23 14:53:09;;;;;;;10.60;9.80;;;14.70;99.90;;;;;;5858814;23;20318;-83
2023/02/23 14:55:43;;;;;;;10.53;9.70;;;14.60;99.90;;;;;;4883808;29;20261;-80
2023/02/23 14:58:23;;;;;;;10.43;9.43;;;14.60;99.90;;;;;;4945076;28;20210;-81
2023/02/23 15:03:37;;;;;;;11.33;10.10;;;14.40;99.90;;;;;;4956135;28;20232;-79
2023/02/23 15:06:05;;;;;;;12.03;9.47;;;14.40;99.90;;;;;;4965450;28;20208;-79
2023/02/23 15:08:38;;;;;;;9.50;8.80;;;14.30;99.90;;;;;;4969026;28;20206;-80
2023/02/23 15:11:12;;;;;;;10.60;9.80;;;14.20;99.90;;;;;;4952325;29;20198;-79
2023/02/23 15:13:42;;;;;;;10.63;9.73;;;14.00;99.90;;;;;;4958316;29;20224;-79
2023/02/23 15:16:14;;;;;;;10.70;9.80;;;14.00;99.90;;;;;;4968394;28;20276;-79
2023/02/23 15:19:31;;;;;;;9.77;8.93;;;13.90;99.90;;;;;;4960299;28;20644;-79
2023/02/23 15:22:00;;;;;;;10.23;9.33;;;13.90;99.90;;;;;;4961162;28;20210;-80
2023/02/23 15:24:30;;;;;;;9.87;9.07;;;13.80;99.90;;;;;;4961109;28;20279;-78
2023/02/23 15:26:59;;;;;;;10.27;9.43;;;13.80;99.90;;;;;;4959008;28;20200;-82
2023/02/23 15:29:32;;;;;;;9.70;9.00;;;13.70;99.90;;;;;;4957397;28;20208;-83
2023/02/23 15:32:13;;;;;;;9.77;8.97;;;13.70;99.90;;;;;;4962836;28;20200;-80
2023/02/23 15:34:41;;;;;;;9.97;9.27;;;13.70;99.90;;;;;;4961461;28;20258;-81
2023/02/23 15:37:14;;;;;;;10.40;9.60;;;13.70;99.90;;;;;;4961359;28;20200;-82
2023/02/23 15:39:52;;;;;;;10.30;9.30;;;13.70;99.90;;;;;;4969548;28;20207;-81
2023/02/23 15:42:24;;;;;;;9.70;8.90;;;13.70;99.90;;;;;;4960848;28;20274;-82
2023/02/23 15:44:58;;;;;;;9.93;9.13;;;13.70;99.90;;;;;;4958910;28;20225;-81
2023/02/23 15:47:28;;;;;;;9.67;8.87;;;13.70;99.90;;;;;;4958028;28;20208;-84
2023/02/23 15:50:06;;;;;;;9.27;8.57;;;13.70;99.90;;;;;;4958800;28;20612;-83
2023/02/23 15:52:34;;;;;;;9.70;8.80;;;13.60;99.90;;;;;;4956829;28;20214;-78
2023/02/23 15:55:05;;;;;;;9.00;8.30;;;13.60;99.90;;;;;;4959503;28;20640;-78
2023/02/23 15:57:46;;;;;;;9.50;8.70;;;13.50;99.90;;;;;;4958020;28;20208;-82
2023/02/23 16:00:18;;;;;;;9.60;8.90;;;13.50;99.90;;;;;;4959928;28;20213;-79
2023/02/23 16:02:47;;;;;;;10.47;9.57;;;13.30;99.90;;;;;;4956281;28;20259;-78
2023/02/23 16:05:22;;;;;;;11.27;10.03;;;13.30;99.90;;;;;;4965087;28;20237;-79
2023/02/23 16:07:48;;;;;;;10.30;9.50;;;13.20;99.90;;;;;;4974441;28;20624;-78
2023/02/23 16:10:21;;;;;;;10.70;10.00;;;13.20;99.90;;;;;;4973024;28;20259;-78
2023/02/23 16:12:52;;;;;;;13.23;11.83;;;13.10;99.90;;;;;;4957368;28;20232;-80
2023/02/23 16:15:24;;;;;;;12.47;10.13;;;13.00;99.90;;;;;;4957237;28;20231;-79
2023/02/23 16:17:57;;;;;;;11.23;10.27;;;12.90;99.90;;;;;;4956522;28;20636;-79
2023/02/23 16:20:33;;;;;;;13.70;12.13;;;12.80;99.90;;;;;;4956240;28;20207;-78
2023/02/23 16:23:01;;;;;;;13.40;12.20;;;12.70;99.90;;;;;;4961891;28;20202;-78
2023/02/23 16:25:30;;;;;;;14.20;12.20;;;12.60;99.90;;;;;;4960330;28;20226;-79
2023/02/23 16:28:01;;;;;;;13.00;11.70;;;12.50;99.90;;;;;;4960201;28;20195;-78
2023/02/23 16:30:39;;;;;;;12.97;11.67;;;12.40;99.90;;;;;;4962619;28;20245;-79
2023/02/23 16:33:11;;;;;;;13.30;12.10;;;12.40;99.90;;;;;;4975630;28;20233;-79
2023/02/23 16:35:52;;;;;;;13.60;12.30;;;12.30;99.90;;;;;;4962878;28;20269;-82
2023/02/23 16:38:26;;;;;;;12.80;11.77;;;12.30;99.90;;;;;;4959193;28;20205;-78
2023/02/23 16:40:53;;;;;;;13.20;12.10;;;12.20;99.90;;;;;;4960521;28;20202;-76
2023/02/23 16:43:21;;;;;;;13.60;12.50;;;12.10;99.90;;;;;;4964845;28;20764;-78
2023/02/23 16:45:48;;;;;;;15.13;13.57;;;12.10;99.90;;;;;;4955718;28;20549;-76
2023/02/23 16:48:16;;;;;;;14.00;12.80;;;12.00;99.90;;;;;;4960437;28;20237;-77
2023/02/23 16:50:44;;;;;;;14.40;13.03;;;11.90;99.90;;;;;;4955482;28;20206;-77
2023/02/23 16:53:11;;;;;;;15.10;13.60;;;11.90;99.90;;;;;;4955321;28;20216;-79
2023/02/23 16:58:23;;;;;;;16.30;14.60;;;11.80;99.90;;;;;;5268659;23;20233;-78
2023/02/23 17:00:51;;;;;;;16.23;14.70;;;11.80;99.90;;;;;;4979969;28;20207;-79
2023/02/23 17:03:20;;;;;;;17.43;15.10;;;11.70;99.90;;;;;;4983735;28;20193;-78
2023/02/23 17:05:48;;;;;;;16.87;15.37;;;11.70;99.90;;;;;;4976765;28;20207;-77
2023/02/23 17:08:15;;;;;;;16.97;15.27;;;11.60;99.90;;;;;;4978113;28;20202;-77
2023/02/23 17:10:43;;;;;;;16.87;14.73;;;11.60;99.90;;;;;;4978210;28;20237;-77
2023/02/23 17:13:17;;;;;;;18.87;16.27;;;11.60;99.90;;;;;;4977289;28;20205;-77
2023/02/23 17:15:50;;;;;;;16.97;15.17;;;11.50;99.90;;;;;;4978262;28;20231;-78
2023/02/23 17:18:17;;;;;;;15.40;13.80;;;11.50;99.90;;;;;;4977655;28;20202;-78
2023/02/23 17:20:45;;;;;;;16.17;14.57;;;11.50;99.90;;;;;;4979766;28;20279;-78
2023/02/23 17:23:12;;;;;;;17.27;15.57;;;11.40;99.90;;;;;;4979609;28;20334;-77
2023/02/23 17:25:39;;;;;;;18.47;16.57;;;11.40;99.90;;;;;;4979209;28;20197;-78
2023/02/23 17:28:06;;;;;;;17.30;14.87;;;11.40;99.90;;;;;;4978287;28;20207;-77
2023/02/23 17:30:34;;;;;;;19.37;17.27;;;11.40;99.90;;;;;;4975379;28;20272;-79
2023/02/23 17:33:03;;;;;;;22.73;18.43;;;11.30;99.90;;;;;;4974181;28;20232;-79
2023/02/23 17:35:32;;;;;;;22.20;18.10;;;11.30;99.90;;;;;;4976545;28;20234;-77
2023/02/23 17:37:59;;;;;;;19.80;17.07;;;11.30;99.90;;;;;;4978726;28;20223;-79